sensor_id;sensor_type;location;lat;lon;timestamp;temperature;humidity
40932;DHT22;36257;46.052;12.540;2024-01-27T00:00:06;4.40;99.90
40932;DHT22;36257;46.052;12.540;2024-01-27T00:02:32;4.40;99.90
40932;DHT22;36257;46.052;12.540;2024-01-27T00:04:58;4.50;99.90
40932;DHT22;36257;46.052;12.540;2024-01-27T00:07:23;4.50;99.90
40932;DHT22;36257;46.052;12.540;2024-01-27T00:09:50;4.50;99.90
40932;DHT22;36257;46.052;12.540;2024-01-27T00:12:17;4.50;99.90
40932;DHT22;36257;46.052;12.540;2024-01-27T00:14:42;4.40;99.90
40932;DHT22;36257;46.052;12.540;2024-01-27T00:17:09;4.40;99.90
40932;DHT22;36257;46.052;12.540;2024-01-27T00:19:35;4.40;99.90
40932;DHT22;36257;46.052;12.540;2024-01-27T00:22:01;4.40;99.90
40932;DHT22;36257;46.052;12.540;2024-01-27T00:24:27;4.40;99.90
40932;DHT22;36257;46.052;12.540;2024-01-27T00:26:53;4.30;99.90
40932;DHT22;36257;46.052;12.540;2024-01-27T00:39:41;4.10;99.90
40932;DHT22;36257;46.052;12.540;2024-01-27T00:42:07;4.10;99.90
40932;DHT22;36257;46.052;12.540;2024-01-27T00:52:19;4.00;99.90
40932;DHT22;36257;46.052;12.540;2024-01-27T00:54:45;4.10;99.90
40932;DHT22;36257;46.052;12.540;2024-01-27T00:57:11;4.00;99.90
40932;DHT22;36257;46.052;12.540;2024-01-27T00:59:36;4.00;99.90
40932;DHT22;36257;46.052;12.540;2024-01-27T01:02:03;4.00;99.90
40932;DHT22;36257;46.052;12.540;2024-01-27T01:04:29;4.00;99.90
40932;DHT22;36257;46.052;12.540;2024-01-27T01:06:58;4.00;99.90
40932;DHT22;36257;46.052;12.540;2024-01-27T01:09:24;3.90;99.90
40932;DHT22;36257;46.052;12.540;2024-01-27T01:11:50;3.90;99.90
40932;DHT22;36257;46.052;12.540;2024-01-27T01:14:16;3.90;99.90
40932;DHT22;36257;46.052;12.540;2024-01-27T01:16:41;3.90;99.90
40932;DHT22;36257;46.052;12.540;2024-01-27T01:19:07;3.90;99.90
40932;DHT22;36257;46.052;12.540;2024-01-27T01:21:34;3.90;99.90
40932;DHT22;36257;46.052;12.540;2024-01-27T01:24:00;3.90;99.90
40932;DHT22;36257;46.052;12.540;2024-01-27T01:26:26;3.90;99.90
40932;DHT22;36257;46.052;12.540;2024-01-27T01:28:52;3.90;99.90
40932;DHT22;36257;46.052;12.540;2024-01-27T01:31:17;3.90;99.90
40932;DHT22;36257;46.052;12.540;2024-01-27T01:33:44;3.90;99.90
40932;DHT22;36257;46.052;12.540;2024-01-27T01:36:10;4.00;99.90
40932;DHT22;36257;46.052;12.540;2024-01-27T01:38:36;3.90;99.90
40932;DHT22;36257;46.052;12.540;2024-01-27T01:41:01;3.90;99.90
40932;DHT22;36257;46.052;12.540;2024-01-27T01:43:27;3.90;99.90
40932;DHT22;36257;46.052;12.540;2024-01-27T01:45:53;3.90;99.90
40932;DHT22;36257;46.052;12.540;2024-01-27T01:48:22;3.80;99.90
40932;DHT22;36257;46.052;12.540;2024-01-27T01:50:49;3.90;99.90
40932;DHT22;36257;46.052;12.540;2024-01-27T01:53:15;3.90;99.90
40932;DHT22;36257;46.052;12.540;2024-01-27T01:55:42;3.80;99.90
40932;DHT22;36257;46.052;12.540;2024-01-27T01:58:08;3.80;99.90
40932;DHT22;36257;46.052;12.540;2024-01-27T02:00:34;3.80;99.90
40932;DHT22;36257;46.052;12.540;2024-01-27T02:03:00;3.70;99.90
40932;DHT22;36257;46.052;12.540;2024-01-27T02:05:26;3.70;99.90
40932;DHT22;36257;46.052;12.540;2024-01-27T02:07:52;3.80;99.90
40932;DHT22;36257;46.052;12.540;2024-01-27T02:10:21;3.80;99.90
40932;DHT22;36257;46.052;12.540;2024-01-27T02:12:47;3.80;99.90
40932;DHT22;36257;46.052;12.540;2024-01-27T02:15:13;3.80;99.90
40932;DHT22;36257;46.052;12.540;2024-01-27T02:17:40;3.80;99.90
40932;DHT22;36257;46.052;12.540;2024-01-27T02:20:06;3.90;99.90
40932;DHT22;36257;46.052;12.540;2024-01-27T02:22:35;3.90;99.90
40932;DHT22;36257;46.052;12.540;2024-01-27T02:25:02;3.80;99.90
40932;DHT22;36257;46.052;12.540;2024-01-27T02:27:29;3.70;99.90
40932;DHT22;36257;46.052;12.540;2024-01-27T02:29:55;3.60;99.90
40932;DHT22;36257;46.052;12.540;2024-01-27T02:32:20;3.60;99.90
40932;DHT22;36257;46.052;12.540;2024-01-27T02:34:46;3.50;99.90
40932;DHT22;36257;46.052;12.540;2024-01-27T02:37:12;3.50;99.90
40932;DHT22;36257;46.052;12.540;2024-01-27T02:39:38;3.50;99.90
40932;DHT22;36257;46.052;12.540;2024-01-27T02:42:06;3.50;99.90
40932;DHT22;36257;46.052;12.540;2024-01-27T02:44:32;3.50;99.90
40932;DHT22;36257;46.052;12.540;2024-01-27T02:46:57;3.40;99.90
40932;DHT22;36257;46.052;12.540;2024-01-27T02:49:23;3.40;99.90
40932;DHT22;36257;46.052;12.540;2024-01-27T02:51:49;3.40;99.90
40932;DHT22;36257;46.052;12.540;2024-01-27T02:54:15;3.40;99.90
40932;DHT22;36257;46.052;12.540;2024-01-27T02:56:41;3.50;99.90
40932;DHT22;36257;46.052;12.540;2024-01-27T02:59:07;3.40;99.90
40932;DHT22;36257;46.052;12.540;2024-01-27T03:01:33;3.40;99.90
40932;DHT22;36257;46.052;12.540;2024-01-27T03:03:59;3.30;99.90
40932;DHT22;36257;46.052;12.540;2024-01-27T03:06:24;3.30;99.90
40932;DHT22;36257;46.052;12.540;2024-01-27T03:08:50;3.30;99.90
40932;DHT22;36257;46.052;12.540;2024-01-27T03:11:16;3.30;99.90
40932;DHT22;36257;46.052;12.540;2024-01-27T03:13:41;3.30;99.90
40932;DHT22;36257;46.052;12.540;2024-01-27T03:16:10;3.30;99.90
40932;DHT22;36257;46.052;12.540;2024-01-27T03:18:36;3.40;99.90
40932;DHT22;36257;46.052;12.540;2024-01-27T03:21:03;3.30;99.90
40932;DHT22;36257;46.052;12.540;2024-01-27T03:23:29;3.30;99.90
40932;DHT22;36257;46.052;12.540;2024-01-27T03:25:54;3.30;99.90
40932;DHT22;36257;46.052;12.540;2024-01-27T03:28:20;3.20;99.90
40932;DHT22;36257;46.052;12.540;2024-01-27T03:30:46;3.20;99.90
40932;DHT22;36257;46.052;12.540;2024-01-27T03:33:12;3.20;99.90
40932;DHT22;36257;46.052;12.540;2024-01-27T03:35:41;3.20;99.90
40932;DHT22;36257;46.052;12.540;2024-01-27T03:38:07;3.20;99.90
40932;DHT22;36257;46.052;12.540;2024-01-27T03:40:33;3.30;99.90
40932;DHT22;36257;46.052;12.540;2024-01-27T03:42:58;3.20;99.90
40932;DHT22;36257;46.052;12.540;2024-01-27T03:45:24;3.10;99.90
40932;DHT22;36257;46.052;12.540;2024-01-27T03:47:50;3.10;99.90
40932;DHT22;36257;46.052;12.540;2024-01-27T03:50:16;3.00;99.90
40932;DHT22;36257;46.052;12.540;2024-01-27T03:52:41;2.90;99.90
40932;DHT22;36257;46.052;12.540;2024-01-27T03:55:07;2.90;99.90
40932;DHT22;36257;46.052;12.540;2024-01-27T03:57:33;3.00;99.90
40932;DHT22;36257;46.052;12.540;2024-01-27T03:59:59;2.90;99.90
40932;DHT22;36257;46.052;12.540;2024-01-27T04:02:24;2.90;99.90
40932;DHT22;36257;46.052;12.540;2024-01-27T04:04:50;2.90;99.90
40932;DHT22;36257;46.052;12.540;2024-01-27T04:07:15;3.00;99.90
40932;DHT22;36257;46.052;12.540;2024-01-27T04:09:41;2.90;99.90
40932;DHT22;36257;46.052;12.540;2024-01-27T04:12:07;3.00;99.90
40932;DHT22;36257;46.052;12.540;2024-01-27T04:14:33;3.00;99.90
40932;DHT22;36257;46.052;12.540;2024-01-27T04:16:59;3.10;99.90
40932;DHT22;36257;46.052;12.540;2024-01-27T04:19:24;3.10;99.90
40932;DHT22;36257;46.052;12.540;2024-01-27T04:21:50;3.00;99.90
40932;DHT22;36257;46.052;12.540;2024-01-27T04:24:15;3.00;99.90
40932;DHT22;36257;46.052;12.540;2024-01-27T04:26:41;3.00;99.90
40932;DHT22;36257;46.052;12.540;2024-01-27T04:29:07;2.90;99.90
40932;DHT22;36257;46.052;12.540;2024-01-27T04:31:33;2.90;99.90
40932;DHT22;36257;46.052;12.540;2024-01-27T04:33:59;2.90;99.90
40932;DHT22;36257;46.052;12.540;2024-01-27T04:36:29;2.90;99.90
40932;DHT22;36257;46.052;12.540;2024-01-27T04:38:55;2.90;99.90
40932;DHT22;36257;46.052;12.540;2024-01-27T04:41:21;2.90;99.90
40932;DHT22;36257;46.052;12.540;2024-01-27T04:43:46;3.00;99.90
40932;DHT22;36257;46.052;12.540;2024-01-27T04:46:12;3.00;99.90
40932;DHT22;36257;46.052;12.540;2024-01-27T04:48:38;2.90;99.90
40932;DHT22;36257;46.052;12.540;2024-01-27T04:51:03;3.00;99.90
40932;DHT22;36257;46.052;12.540;2024-01-27T04:53:29;3.10;99.90
40932;DHT22;36257;46.052;12.540;2024-01-27T04:55:55;3.10;99.90
40932;DHT22;36257;46.052;12.540;2024-01-27T04:58:20;3.00;99.90
40932;DHT22;36257;46.052;12.540;2024-01-27T05:00:46;3.00;99.90
40932;DHT22;36257;46.052;12.540;2024-01-27T05:03:12;3.00;99.90
40932;DHT22;36257;46.052;12.540;2024-01-27T05:05:42;3.00;99.90
40932;DHT22;36257;46.052;12.540;2024-01-27T05:08:08;3.00;99.90
40932;DHT22;36257;46.052;12.540;2024-01-27T05:10:35;3.00;99.90
40932;DHT22;36257;46.052;12.540;2024-01-27T05:13:01;3.00;99.90
40932;DHT22;36257;46.052;12.540;2024-01-27T05:15:26;2.90;99.90
40932;DHT22;36257;46.052;12.540;2024-01-27T05:17:52;3.00;99.90
40932;DHT22;36257;46.052;12.540;2024-01-27T05:20:18;3.00;99.90
40932;DHT22;36257;46.052;12.540;2024-01-27T05:22:44;3.00;99.90
40932;DHT22;36257;46.052;12.540;2024-01-27T05:25:11;3.00;99.90
40932;DHT22;36257;46.052;12.540;2024-01-27T05:27:38;3.00;99.90
40932;DHT22;36257;46.052;12.540;2024-01-27T05:30:07;3.00;99.90
40932;DHT22;36257;46.052;12.540;2024-01-27T05:32:33;2.90;99.90
40932;DHT22;36257;46.052;12.540;2024-01-27T05:34:58;3.00;99.90
40932;DHT22;36257;46.052;12.540;2024-01-27T05:37:24;2.90;99.90
40932;DHT22;36257;46.052;12.540;2024-01-27T05:39:50;2.90;99.90
40932;DHT22;36257;46.052;12.540;2024-01-27T05:42:15;2.90;99.90
40932;DHT22;36257;46.052;12.540;2024-01-27T05:44:41;2.90;99.90
40932;DHT22;36257;46.052;12.540;2024-01-27T05:47:07;2.90;99.90
40932;DHT22;36257;46.052;12.540;2024-01-27T05:49:33;2.90;99.90
40932;DHT22;36257;46.052;12.540;2024-01-27T05:51:59;2.90;99.90
40932;DHT22;36257;46.052;12.540;2024-01-27T05:54:24;2.90;99.90
40932;DHT22;36257;46.052;12.540;2024-01-27T05:56:50;3.00;99.90
40932;DHT22;36257;46.052;12.540;2024-01-27T05:59:16;2.90;99.90
40932;DHT22;36257;46.052;12.540;2024-01-27T06:01:41;2.90;99.90
40932;DHT22;36257;46.052;12.540;2024-01-27T06:04:09;2.80;99.90
40932;DHT22;36257;46.052;12.540;2024-01-27T06:06:37;2.80;99.90
40932;DHT22;36257;46.052;12.540;2024-01-27T06:09:03;2.70;99.90
40932;DHT22;36257;46.052;12.540;2024-01-27T06:11:29;2.60;99.90
40932;DHT22;36257;46.052;12.540;2024-01-27T06:13:55;2.60;99.90
40932;DHT22;36257;46.052;12.540;2024-01-27T06:16:21;2.60;99.90
40932;DHT22;36257;46.052;12.540;2024-01-27T06:18:46;2.60;99.90
40932;DHT22;36257;46.052;12.540;2024-01-27T06:21:12;2.60;99.90
40932;DHT22;36257;46.052;12.540;2024-01-27T06:23:41;2.50;99.90
40932;DHT22;36257;46.052;12.540;2024-01-27T06:26:07;2.50;99.90
40932;DHT22;36257;46.052;12.540;2024-01-27T06:28:33;2.40;99.90
40932;DHT22;36257;46.052;12.540;2024-01-27T06:31:00;2.40;99.90
40932;DHT22;36257;46.052;12.540;2024-01-27T06:33:26;2.40;99.90
40932;DHT22;36257;46.052;12.540;2024-01-27T06:35:51;2.50;99.90
40932;DHT22;36257;46.052;12.540;2024-01-27T06:38:17;2.60;99.90
40932;DHT22;36257;46.052;12.540;2024-01-27T06:40:43;2.60;99.90
40932;DHT22;36257;46.052;12.540;2024-01-27T06:43:11;2.60;99.90
40932;DHT22;36257;46.052;12.540;2024-01-27T08:06:50;5.30;99.90
40932;DHT22;36257;46.052;12.540;2024-01-27T08:09:16;5.50;99.90
40932;DHT22;36257;46.052;12.540;2024-01-27T08:11:42;5.70;99.90
40932;DHT22;36257;46.052;12.540;2024-01-27T08:14:08;5.90;99.90
40932;DHT22;36257;46.052;12.540;2024-01-27T08:16:34;6.20;99.90
40932;DHT22;36257;46.052;12.540;2024-01-27T08:19:00;6.40;99.90
40932;DHT22;36257;46.052;12.540;2024-01-27T08:21:26;6.60;99.90
40932;DHT22;36257;46.052;12.540;2024-01-27T08:23:52;6.90;99.90
40932;DHT22;36257;46.052;12.540;2024-01-27T08:26:18;7.20;99.90
40932;DHT22;36257;46.052;12.540;2024-01-27T08:28:48;7.50;99.90
40932;DHT22;36257;46.052;12.540;2024-01-27T08:31:14;7.70;99.90
40932;DHT22;36257;46.052;12.540;2024-01-27T08:33:40;8.10;99.90
40932;DHT22;36257;46.052;12.540;2024-01-27T08:36:06;8.30;99.90
40932;DHT22;36257;46.052;12.540;2024-01-27T08:38:32;8.60;99.90
40932;DHT22;36257;46.052;12.540;2024-01-27T08:40:58;8.80;99.90
40932;DHT22;36257;46.052;12.540;2024-01-27T08:43:23;9.10;99.90
40932;DHT22;36257;46.052;12.540;2024-01-27T08:45:49;9.30;99.90
40932;DHT22;36257;46.052;12.540;2024-01-27T08:48:14;9.60;99.90
40932;DHT22;36257;46.052;12.540;2024-01-27T08:50:41;9.80;99.90
40932;DHT22;36257;46.052;12.540;2024-01-27T08:53:07;10.10;99.90
40932;DHT22;36257;46.052;12.540;2024-01-27T08:55:33;10.30;99.90
40932;DHT22;36257;46.052;12.540;2024-01-27T08:58:00;10.40;98.40
40932;DHT22;36257;46.052;12.540;2024-01-27T09:00:26;10.60;98.50
40932;DHT22;36257;46.052;12.540;2024-01-27T09:02:52;10.80;97.60
40932;DHT22;36257;46.052;12.540;2024-01-27T09:05:18;11.10;96.70
40932;DHT22;36257;46.052;12.540;2024-01-27T09:07:44;11.20;96.70
40932;DHT22;36257;46.052;12.540;2024-01-27T09:10:10;11.40;96.20
40932;DHT22;36257;46.052;12.540;2024-01-27T09:12:38;11.60;95.20
40932;DHT22;36257;46.052;12.540;2024-01-27T09:15:04;11.30;95.40
40932;DHT22;36257;46.052;12.540;2024-01-27T09:17:31;11.40;95.50
40932;DHT22;36257;46.052;12.540;2024-01-27T09:19:56;11.40;95.20
40932;DHT22;36257;46.052;12.540;2024-01-27T09:22:22;11.60;95.90
40932;DHT22;36257;46.052;12.540;2024-01-27T09:24:48;11.90;96.00
40932;DHT22;36257;46.052;12.540;2024-01-27T09:27:14;12.20;94.90
40932;DHT22;36257;46.052;12.540;2024-01-27T09:29:39;12.50;93.30
40932;DHT22;36257;46.052;12.540;2024-01-27T09:32:05;12.70;92.40
40932;DHT22;36257;46.052;12.540;2024-01-27T09:34:36;13.00;92.20
40932;DHT22;36257;46.052;12.540;2024-01-27T09:37:03;13.20;91.20
40932;DHT22;36257;46.052;12.540;2024-01-27T09:39:31;13.30;88.70
40932;DHT22;36257;46.052;12.540;2024-01-27T09:42:03;13.30;88.70
40932;DHT22;36257;46.052;12.540;2024-01-27T09:44:31;13.50;89.50
40932;DHT22;36257;46.052;12.540;2024-01-27T09:47:04;13.40;88.40
40932;DHT22;36257;46.052;12.540;2024-01-27T09:49:39;13.40;88.50
40932;DHT22;36257;46.052;12.540;2024-01-27T09:52:07;13.30;88.90
40932;DHT22;36257;46.052;12.540;2024-01-27T09:54:38;13.70;89.90
40932;DHT22;36257;46.052;12.540;2024-01-27T10:57:44;17.40;76.50
40932;DHT22;36257;46.052;12.540;2024-01-27T11:00:11;17.80;75.90
40932;DHT22;36257;46.052;12.540;2024-01-27T11:02:38;18.00;74.60
40932;DHT22;36257;46.052;12.540;2024-01-27T11:05:05;18.20;75.00
40932;DHT22;36257;46.052;12.540;2024-01-27T11:07:33;18.30;74.30
40932;DHT22;36257;46.052;12.540;2024-01-27T11:09:59;18.40;74.30
40932;DHT22;36257;46.052;12.540;2024-01-27T11:12:26;18.60;73.70
40932;DHT22;36257;46.052;12.540;2024-01-27T11:14:52;18.80;74.50
40932;DHT22;36257;46.052;12.540;2024-01-27T11:17:19;19.20;72.80
40932;DHT22;36257;46.052;12.540;2024-01-27T11:19:45;19.30;72.30
40932;DHT22;36257;46.052;12.540;2024-01-27T11:22:37;19.50;72.80
40932;DHT22;36257;46.052;12.540;2024-01-27T11:27:36;19.40;73.00
40932;DHT22;36257;46.052;12.540;2024-01-27T11:30:02;19.20;72.90
40932;DHT22;36257;46.052;12.540;2024-01-27T11:32:28;19.10;72.40
40932;DHT22;36257;46.052;12.540;2024-01-27T11:34:55;18.90;72.90
40932;DHT22;36257;46.052;12.540;2024-01-27T11:37:21;18.90;73.80
40932;DHT22;36257;46.052;12.540;2024-01-27T11:39:50;19.00;73.80
40932;DHT22;36257;46.052;12.540;2024-01-27T11:42:16;18.90;72.70
40932;DHT22;36257;46.052;12.540;2024-01-27T11:44:43;18.80;71.80
40932;DHT22;36257;46.052;12.540;2024-01-27T11:47:18;18.70;73.60
40932;DHT22;36257;46.052;12.540;2024-01-27T11:49:53;18.70;73.90
40932;DHT22;36257;46.052;12.540;2024-01-27T11:52:20;18.60;72.50
40932;DHT22;36257;46.052;12.540;2024-01-27T11:54:46;18.60;71.40
40932;DHT22;36257;46.052;12.540;2024-01-27T11:57:11;18.60;68.30
40932;DHT22;36257;46.052;12.540;2024-01-27T11:59:37;18.70;69.10
40932;DHT22;36257;46.052;12.540;2024-01-27T12:02:03;18.80;68.80
40932;DHT22;36257;46.052;12.540;2024-01-27T12:04:29;19.00;66.10
40932;DHT22;36257;46.052;12.540;2024-01-27T12:06:55;18.90;66.20
40932;DHT22;36257;46.052;12.540;2024-01-27T12:09:20;18.80;67.00
40932;DHT22;36257;46.052;12.540;2024-01-27T12:11:47;19.00;67.70
40932;DHT22;36257;46.052;12.540;2024-01-27T12:14:13;19.10;65.40
40932;DHT22;36257;46.052;12.540;2024-01-27T12:16:39;19.40;65.60
40932;DHT22;36257;46.052;12.540;2024-01-27T12:19:05;19.30;65.40
40932;DHT22;36257;46.052;12.540;2024-01-27T12:21:31;19.30;67.00
40932;DHT22;36257;46.052;12.540;2024-01-27T12:23:58;19.10;66.50
40932;DHT22;36257;46.052;12.540;2024-01-27T12:26:28;19.00;66.40
40932;DHT22;36257;46.052;12.540;2024-01-27T12:28:55;19.00;64.60
40932;DHT22;36257;46.052;12.540;2024-01-27T12:31:22;19.00;65.60
40932;DHT22;36257;46.052;12.540;2024-01-27T12:33:56;19.10;64.60
40932;DHT22;36257;46.052;12.540;2024-01-27T12:36:22;19.20;63.80
40932;DHT22;36257;46.052;12.540;2024-01-27T12:38:58;19.40;63.00
40932;DHT22;36257;46.052;12.540;2024-01-27T12:41:28;19.50;63.70
40932;DHT22;36257;46.052;12.540;2024-01-27T12:43:55;19.70;62.60
40932;DHT22;36257;46.052;12.540;2024-01-27T12:46:21;20.10;62.90
40932;DHT22;36257;46.052;12.540;2024-01-27T12:48:46;20.70;63.10
40932;DHT22;36257;46.052;12.540;2024-01-27T12:51:12;21.20;62.10
40932;DHT22;36257;46.052;12.540;2024-01-27T12:53:39;21.60;61.70
40932;DHT22;36257;46.052;12.540;2024-01-27T12:56:11;21.70;60.00
40932;DHT22;36257;46.052;12.540;2024-01-27T12:58:38;21.80;59.90
40932;DHT22;36257;46.052;12.540;2024-01-27T13:01:04;21.90;59.70
40932;DHT22;36257;46.052;12.540;2024-01-27T13:03:29;21.80;59.10
40932;DHT22;36257;46.052;12.540;2024-01-27T13:05:56;21.60;59.30
40932;DHT22;36257;46.052;12.540;2024-01-27T13:08:22;21.60;59.30
40932;DHT22;36257;46.052;12.540;2024-01-27T13:10:48;21.60;59.00
40932;DHT22;36257;46.052;12.540;2024-01-27T13:13:14;21.60;59.00
40932;DHT22;36257;46.052;12.540;2024-01-27T13:15:40;21.70;59.10
40932;DHT22;36257;46.052;12.540;2024-01-27T13:33:38;21.80;58.70
40932;DHT22;36257;46.052;12.540;2024-01-27T13:36:05;22.00;58.70
40932;DHT22;36257;46.052;12.540;2024-01-27T13:38:31;22.00;59.60
40932;DHT22;36257;46.052;12.540;2024-01-27T13:40:56;22.30;59.90
40932;DHT22;36257;46.052;12.540;2024-01-27T13:43:22;22.40;58.10
40932;DHT22;36257;46.052;12.540;2024-01-27T13:45:48;22.50;58.20
40932;DHT22;36257;46.052;12.540;2024-01-27T13:48:14;22.50;57.00
40932;DHT22;36257;46.052;12.540;2024-01-27T13:50:41;22.40;58.40
40932;DHT22;36257;46.052;12.540;2024-01-27T13:53:07;22.20;57.60
40932;DHT22;36257;46.052;12.540;2024-01-27T13:55:32;22.10;57.10
40932;DHT22;36257;46.052;12.540;2024-01-27T13:57:58;21.90;57.00
40932;DHT22;36257;46.052;12.540;2024-01-27T14:00:25;22.00;57.40
40932;DHT22;36257;46.052;12.540;2024-01-27T14:02:51;21.90;56.90
40932;DHT22;36257;46.052;12.540;2024-01-27T14:05:17;21.80;56.40
40932;DHT22;36257;46.052;12.540;2024-01-27T14:07:43;21.70;57.00
40932;DHT22;36257;46.052;12.540;2024-01-27T14:53:59;20.10;54.60
40932;DHT22;36257;46.052;12.540;2024-01-27T15:43:00;13.90;71.00
40932;DHT22;36257;46.052;12.540;2024-01-27T15:45:25;13.60;71.70
40932;DHT22;36257;46.052;12.540;2024-01-27T15:47:52;13.30;72.20
40932;DHT22;36257;46.052;12.540;2024-01-27T15:50:20;12.90;72.90
40932;DHT22;36257;46.052;12.540;2024-01-27T15:52:46;12.70;73.20
40932;DHT22;36257;46.052;12.540;2024-01-27T15:55:12;12.60;73.90
40932;DHT22;36257;46.052;12.540;2024-01-27T15:57:38;12.40;74.30
40932;DHT22;36257;46.052;12.540;2024-01-27T16:00:04;12.20;74.80
40932;DHT22;36257;46.052;12.540;2024-01-27T16:02:35;12.10;75.00
40932;DHT22;36257;46.052;12.540;2024-01-27T16:05:01;11.90;75.10
40932;DHT22;36257;46.052;12.540;2024-01-27T16:07:26;11.90;75.50
40932;DHT22;36257;46.052;12.540;2024-01-27T16:09:52;11.80;75.80
40932;DHT22;36257;46.052;12.540;2024-01-27T16:12:21;11.70;76.00
40932;DHT22;36257;46.052;12.540;2024-01-27T16:14:46;11.50;76.00
40932;DHT22;36257;46.052;12.540;2024-01-27T16:17:12;11.40;76.10
40932;DHT22;36257;46.052;12.540;2024-01-27T16:19:38;11.30;76.30
40932;DHT22;36257;46.052;12.540;2024-01-27T16:22:03;11.20;76.50
40932;DHT22;36257;46.052;12.540;2024-01-27T16:24:29;11.10;76.70
40932;DHT22;36257;46.052;12.540;2024-01-27T16:26:55;11.10;76.90
40932;DHT22;36257;46.052;12.540;2024-01-27T16:29:20;11.00;77.10
40932;DHT22;36257;46.052;12.540;2024-01-27T16:31:46;10.90;76.80
40932;DHT22;36257;46.052;12.540;2024-01-27T16:34:12;10.80;76.90
40932;DHT22;36257;46.052;12.540;2024-01-27T16:36:38;10.70;77.20
40932;DHT22;36257;46.052;12.540;2024-01-27T16:39:03;10.60;77.60
40932;DHT22;36257;46.052;12.540;2024-01-27T16:41:29;10.50;77.60
40932;DHT22;36257;46.052;12.540;2024-01-27T16:43:55;10.40;77.40
40932;DHT22;36257;46.052;12.540;2024-01-27T16:46:22;10.30;77.30
40932;DHT22;36257;46.052;12.540;2024-01-27T16:48:48;10.10;77.80
40932;DHT22;36257;46.052;12.540;2024-01-27T16:51:16;10.10;78.00
40932;DHT22;36257;46.052;12.540;2024-01-27T16:53:42;10.10;77.90
40932;DHT22;36257;46.052;12.540;2024-01-27T16:56:08;9.90;77.70
40932;DHT22;36257;46.052;12.540;2024-01-27T16:58:34;9.90;77.50
40932;DHT22;36257;46.052;12.540;2024-01-27T17:01:00;9.90;77.50
40932;DHT22;36257;46.052;12.540;2024-01-27T17:03:25;9.80;77.80
40932;DHT22;36257;46.052;12.540;2024-01-27T17:05:51;9.80;77.90
40932;DHT22;36257;46.052;12.540;2024-01-27T17:08:17;9.80;77.40
40932;DHT22;36257;46.052;12.540;2024-01-27T17:10:42;9.70;76.90
40932;DHT22;36257;46.052;12.540;2024-01-27T17:13:08;9.70;75.90
40932;DHT22;36257;46.052;12.540;2024-01-27T17:15:33;9.70;75.40
40932;DHT22;36257;46.052;12.540;2024-01-27T17:18:00;9.80;75.40
40932;DHT22;36257;46.052;12.540;2024-01-27T17:20:26;9.80;75.40
40932;DHT22;36257;46.052;12.540;2024-01-27T17:22:51;9.80;75.60
40932;DHT22;36257;46.052;12.540;2024-01-27T17:25:17;9.80;75.70
40932;DHT22;36257;46.052;12.540;2024-01-27T17:27:44;9.60;75.40
40932;DHT22;36257;46.052;12.540;2024-01-27T17:30:10;9.60;75.50
40932;DHT22;36257;46.052;12.540;2024-01-27T17:32:36;9.60;75.70
40932;DHT22;36257;46.052;12.540;2024-01-27T17:35:03;9.60;75.80
40932;DHT22;36257;46.052;12.540;2024-01-27T17:37:30;9.60;75.90
40932;DHT22;36257;46.052;12.540;2024-01-27T17:40:02;9.50;76.10
40932;DHT22;36257;46.052;12.540;2024-01-27T17:42:32;9.40;76.40
40932;DHT22;36257;46.052;12.540;2024-01-27T17:44:58;9.40;76.30
40932;DHT22;36257;46.052;12.540;2024-01-27T17:47:24;9.30;76.40
40932;DHT22;36257;46.052;12.540;2024-01-27T17:49:49;9.40;76.40
40932;DHT22;36257;46.052;12.540;2024-01-27T17:52:15;9.40;76.60
40932;DHT22;36257;46.052;12.540;2024-01-27T17:54:40;9.40;76.80
40932;DHT22;36257;46.052;12.540;2024-01-27T17:57:06;9.30;77.00
40932;DHT22;36257;46.052;12.540;2024-01-27T17:59:33;9.30;77.10
40932;DHT22;36257;46.052;12.540;2024-01-27T18:01:59;9.30;76.70
40932;DHT22;36257;46.052;12.540;2024-01-27T18:04:24;9.30;76.70
40932;DHT22;36257;46.052;12.540;2024-01-27T18:06:50;9.30;76.70
40932;DHT22;36257;46.052;12.540;2024-01-27T18:09:16;9.30;76.40
40932;DHT22;36257;46.052;12.540;2024-01-27T18:11:41;9.40;76.20
40932;DHT22;36257;46.052;12.540;2024-01-27T18:14:07;9.30;76.10
40932;DHT22;36257;46.052;12.540;2024-01-27T18:16:33;9.40;75.90
40932;DHT22;36257;46.052;12.540;2024-01-27T18:18:58;9.40;75.50
40932;DHT22;36257;46.052;12.540;2024-01-27T18:21:24;9.50;75.00
40932;DHT22;36257;46.052;12.540;2024-01-27T18:23:49;9.50;74.60
40932;DHT22;36257;46.052;12.540;2024-01-27T18:26:15;9.50;74.70
40932;DHT22;36257;46.052;12.540;2024-01-27T18:28:41;9.50;74.80
40932;DHT22;36257;46.052;12.540;2024-01-27T18:31:06;9.50;74.70
40932;DHT22;36257;46.052;12.540;2024-01-27T18:33:32;9.50;74.70
40932;DHT22;36257;46.052;12.540;2024-01-27T18:35:57;9.50;74.80
40932;DHT22;36257;46.052;12.540;2024-01-27T18:38:23;9.40;74.60
40932;DHT22;36257;46.052;12.540;2024-01-27T18:40:49;9.40;74.80
40932;DHT22;36257;46.052;12.540;2024-01-27T18:43:16;9.40;74.70
40932;DHT22;36257;46.052;12.540;2024-01-27T18:45:42;9.40;74.40
40932;DHT22;36257;46.052;12.540;2024-01-27T18:48:08;9.40;74.40
40932;DHT22;36257;46.052;12.540;2024-01-27T18:50:34;9.40;74.00
40932;DHT22;36257;46.052;12.540;2024-01-27T18:53:02;9.50;73.90
40932;DHT22;36257;46.052;12.540;2024-01-27T18:55:27;9.50;73.90
40932;DHT22;36257;46.052;12.540;2024-01-27T18:58:00;9.50;74.20
40932;DHT22;36257;46.052;12.540;2024-01-27T19:00:25;9.40;74.50
40932;DHT22;36257;46.052;12.540;2024-01-27T19:02:51;9.30;74.70
40932;DHT22;36257;46.052;12.540;2024-01-27T19:05:17;9.30;74.40
40932;DHT22;36257;46.052;12.540;2024-01-27T19:07:44;9.20;74.50
40932;DHT22;36257;46.052;12.540;2024-01-27T19:10:14;9.20;74.70
40932;DHT22;36257;46.052;12.540;2024-01-27T19:12:39;9.20;74.50
40932;DHT22;36257;46.052;12.540;2024-01-27T19:15:05;9.20;74.30
40932;DHT22;36257;46.052;12.540;2024-01-27T19:17:31;9.30;74.20
40932;DHT22;36257;46.052;12.540;2024-01-27T19:19:57;9.30;74.10
40932;DHT22;36257;46.052;12.540;2024-01-27T19:22:22;9.30;73.90
40932;DHT22;36257;46.052;12.540;2024-01-27T19:24:48;9.30;73.80
40932;DHT22;36257;46.052;12.540;2024-01-27T19:27:14;9.40;73.70
40932;DHT22;36257;46.052;12.540;2024-01-27T19:29:39;9.40;73.80
40932;DHT22;36257;46.052;12.540;2024-01-27T19:32:05;9.50;73.90
40932;DHT22;36257;46.052;12.540;2024-01-27T19:34:31;9.40;74.10
40932;DHT22;36257;46.052;12.540;2024-01-27T19:37:00;9.40;74.20
40932;DHT22;36257;46.052;12.540;2024-01-27T19:39:25;9.40;73.90
40932;DHT22;36257;46.052;12.540;2024-01-27T19:41:51;9.40;73.90
40932;DHT22;36257;46.052;12.540;2024-01-27T19:44:17;9.40;73.80
40932;DHT22;36257;46.052;12.540;2024-01-27T19:46:42;9.40;74.20